Time;durP1;ratioP1;P1;durP2;ratioP2;P2;SDS_P1;SDS_P2;PMS_P1;PMS_P2;Temp;Humidity;BMP_temperature;BMP_pressure;BME280_temperature;BME280_humidity;BME280_pressure;Samples;Min_cycle;Max_cycle;Signal;HPM_P1;HPM_P2
2023/04/18 00:00:09;;;;;;;1.50;1.40;;;18.40;36.10;;;;;;6160620;23;20611;-85
2023/04/18 00:02:52;;;;;;;1.50;1.40;;;18.20;36.10;;;;;;6163961;23;20162;-85
2023/04/18 00:05:21;;;;;;;2.92;1.30;;;18.20;36.00;;;;;;6131881;23;20207;-85
2023/04/18 00:07:47;;;;;;;2.58;1.67;;;18.30;36.10;;;;;;6117771;23;20155;-85
2023/04/18 00:10:19;;;;;;;1.52;1.40;;;18.30;36.10;;;;;;6178992;23;20661;-85
2023/04/18 00:12:46;;;;;;;3.22;1.33;;;18.30;36.10;;;;;;6165646;23;20237;-85
2023/04/18 00:15:12;;;;;;;1.55;1.30;;;18.30;36.20;;;;;;6203615;23;20162;-84
2023/04/18 00:17:47;;;;;;;1.73;1.42;;;18.30;36.20;;;;;;6215410;23;20151;-84
2023/04/18 00:20:18;;;;;;;1.42;1.33;;;18.20;36.20;;;;;;6158267;23;20149;-85
2023/04/18 00:22:45;;;;;;;1.48;1.30;;;18.30;36.20;;;;;;6194050;23;20191;-85
2023/04/18 00:25:11;;;;;;;2.13;1.50;;;18.30;36.20;;;;;;6194717;23;20177;-85
2023/04/18 00:27:37;;;;;;;1.70;1.42;;;18.30;36.30;;;;;;6169954;23;20161;-85
2023/04/18 00:30:05;;;;;;;1.70;1.60;;;18.20;36.20;;;;;;6210239;22;20206;-85
2023/04/18 00:32:31;;;;;;;1.33;1.20;;;18.20;36.30;;;;;;6256033;22;20149;-85
2023/04/18 00:34:57;;;;;;;2.47;1.38;;;18.30;36.30;;;;;;6255701;22;20137;-85
2023/04/18 00:37:28;;;;;;;1.63;1.40;;;18.30;36.30;;;;;;6230306;22;20205;-85
2023/04/18 00:40:00;;;;;;;1.60;1.40;;;18.30;36.40;;;;;;6205505;22;20148;-85
2023/04/18 00:42:35;;;;;;;1.58;1.42;;;18.20;36.30;;;;;;6229816;22;20152;-86
2023/04/18 00:45:05;;;;;;;1.60;1.38;;;18.30;36.40;;;;;;6155313;22;20156;-85
2023/04/18 00:47:31;;;;;;;1.45;1.35;;;18.30;36.40;;;;;;6205192;22;20154;-85
2023/04/18 00:49:57;;;;;;;2.58;1.40;;;18.30;36.40;;;;;;6254825;22;20144;-85
2023/04/18 00:52:24;;;;;;;1.60;1.50;;;18.20;36.40;;;;;;6230668;22;20140;-85
2023/04/18 00:54:50;;;;;;;1.48;1.30;;;18.30;36.50;;;;;;6291527;22;20151;-85
2023/04/18 00:57:19;;;;;;;1.50;1.40;;;18.20;36.50;;;;;;6293016;22;20568;-85
2023/04/18 00:59:46;;;;;;;1.70;1.60;;;18.20;36.50;;;;;;6293435;22;20151;-84
2023/04/18 01:02:16;;;;;;;1.67;1.52;;;18.20;36.60;;;;;;6293412;22;20143;-85
2023/04/18 01:04:43;;;;;;;1.40;1.30;;;18.20;36.60;;;;;;6265612;22;20575;-85
2023/04/18 01:07:17;;;;;;;1.65;1.55;;;18.20;36.60;;;;;;6317506;22;20170;-84
2023/04/18 01:09:49;;;;;;;1.35;1.20;;;18.20;36.60;;;;;;6250361;23;20483;-85
2023/04/18 01:12:20;;;;;;;1.58;1.40;;;18.20;36.70;;;;;;6174788;23;20606;-85
2023/04/18 01:14:46;;;;;;;1.58;1.40;;;18.20;36.70;;;;;;6175435;23;20646;-85
2023/04/18 01:17:16;;;;;;;1.50;1.40;;;18.20;36.70;;;;;;6250758;23;20169;-85
2023/04/18 01:19:47;;;;;;;2.95;1.67;;;18.10;36.70;;;;;;6200919;23;20157;-84
2023/04/18 01:22:13;;;;;;;1.80;1.50;;;18.20;36.70;;;;;;6174793;23;20193;-85
2023/04/18 01:24:43;;;;;;;1.27;1.17;;;18.20;36.70;;;;;;6251146;23;20134;-85
2023/04/18 01:27:14;;;;;;;1.42;1.33;;;18.10;36.70;;;;;;6200137;23;20156;-85
2023/04/18 01:29:40;;;;;;;1.35;1.25;;;18.10;36.70;;;;;;6200711;23;20153;-85
2023/04/18 01:32:06;;;;;;;1.33;1.20;;;18.10;36.70;;;;;;6226081;23;20157;-85
2023/04/18 01:34:37;;;;;;;1.73;1.25;;;18.20;36.70;;;;;;6294789;22;20482;-85
2023/04/18 01:37:07;;;;;;;2.20;1.30;;;18.10;36.70;;;;;;6240503;22;20263;-84
2023/04/18 01:39:37;;;;;;;1.92;1.70;;;18.20;36.70;;;;;;6216615;22;20628;-84
2023/04/18 01:42:10;;;;;;;1.60;1.30;;;18.20;36.80;;;;;;6241291;22;20177;-85
2023/04/18 01:44:36;;;;;;;1.83;1.50;;;18.10;36.80;;;;;;6242519;22;20155;-84
2023/04/18 01:47:05;;;;;;;3.13;1.63;;;18.10;36.80;;;;;;6318680;22;20132;-84
2023/04/18 01:49:35;;;;;;;2.10;1.58;;;18.10;36.80;;;;;;6291776;22;20143;-84
2023/04/18 01:52:01;;;;;;;1.48;1.38;;;18.10;36.90;;;;;;6265751;22;20147;-84
2023/04/18 01:54:33;;;;;;;1.40;1.30;;;18.10;36.80;;;;;;6291533;22;20161;-85
2023/04/18 01:57:03;;;;;;;2.13;1.60;;;18.10;36.90;;;;;;6203741;22;20195;-85
2023/04/18 01:59:33;;;;;;;1.73;1.58;;;18.00;36.90;;;;;;6154123;22;20184;-84
2023/04/18 02:02:05;;;;;;;1.80;1.50;;;18.10;36.90;;;;;;6179482;22;20152;-85
2023/04/18 02:04:31;;;;;;;2.15;1.60;;;18.10;36.90;;;;;;6179496;22;20156;-84
2023/04/18 02:07:02;;;;;;;2.20;1.80;;;18.10;37.00;;;;;;6229146;22;20152;-84
2023/04/18 02:09:28;;;;;;;1.63;1.50;;;18.10;37.00;;;;;;6179750;22;20175;-85
2023/04/18 02:11:58;;;;;;;1.60;1.50;;;18.10;36.90;;;;;;6230063;22;20145;-84
2023/04/18 02:14:29;;;;;;;1.50;1.40;;;18.10;36.90;;;;;;6280328;22;20155;-84
2023/04/18 02:16:55;;;;;;;2.38;1.30;;;18.10;37.00;;;;;;6179676;22;20195;-85
2023/04/18 02:19:21;;;;;;;1.42;1.20;;;18.10;37.00;;;;;;6255027;22;20681;-85
2023/04/18 02:21:47;;;;;;;1.50;1.40;;;18.10;37.00;;;;;;6223651;23;20185;-84
2023/04/18 02:24:16;;;;;;;1.60;1.50;;;18.10;37.00;;;;;;6199054;23;20149;-84
2023/04/18 02:26:42;;;;;;;1.67;1.58;;;18.10;37.00;;;;;;6224813;23;20156;-85
2023/04/18 02:29:12;;;;;;;2.72;1.67;;;18.00;37.00;;;;;;6283586;22;20148;-85
2023/04/18 02:31:51;;;;;;;1.88;1.60;;;18.10;37.00;;;;;;6210400;22;20156;-85
2023/04/18 02:34:17;;;;;;;1.77;1.55;;;18.10;37.10;;;;;;6236557;22;20155;-85
2023/04/18 02:36:43;;;;;;;1.55;1.45;;;18.10;37.10;;;;;;6286659;22;20787;-85
2023/04/18 02:39:13;;;;;;;1.70;1.60;;;18.00;37.00;;;;;;6261911;22;20156;-85
2023/04/18 02:41:46;;;;;;;2.17;1.30;;;18.10;37.00;;;;;;6211288;22;20144;-85
2023/04/18 02:44:17;;;;;;;2.05;1.70;;;18.00;37.10;;;;;;6236199;22;20152;-85
2023/04/18 02:46:52;;;;;;;1.50;1.40;;;18.00;37.10;;;;;;6236698;22;20182;-85
2023/04/18 02:49:22;;;;;;;2.00;1.83;;;18.00;37.10;;;;;;6235480;22;20216;-85
2023/04/18 02:51:56;;;;;;;1.50;1.38;;;18.00;37.10;;;;;;6214673;22;20156;-85
2023/04/18 02:54:23;;;;;;;1.88;1.48;;;18.00;37.10;;;;;;6241744;22;20153;-84
2023/04/18 02:56:55;;;;;;;3.08;1.45;;;18.00;37.20;;;;;;6347370;22;20171;-84
2023/04/18 02:59:21;;;;;;;1.60;1.45;;;18.00;37.10;;;;;;6267952;22;20154;-85
2023/04/18 03:01:47;;;;;;;1.92;1.50;;;17.90;37.20;;;;;;6240993;22;20147;-84
2023/04/18 03:04:13;;;;;;;2.00;1.38;;;18.00;37.20;;;;;;6292308;22;20205;-84
2023/04/18 03:06:47;;;;;;;1.70;1.40;;;18.00;37.30;;;;;;6292637;22;20154;-85
2023/04/18 03:09:17;;;;;;;1.77;1.55;;;18.00;37.20;;;;;;6242633;22;20147;-85
2023/04/18 03:11:43;;;;;;;1.45;1.33;;;18.00;37.30;;;;;;6216599;22;20151;-85
2023/04/18 03:14:14;;;;;;;1.55;1.45;;;18.00;37.30;;;;;;6318290;22;20132;-85
2023/04/18 03:16:40;;;;;;;1.40;1.30;;;18.00;37.30;;;;;;6240315;22;20192;-85
2023/04/18 03:19:07;;;;;;;1.90;1.60;;;17.90;37.20;;;;;;6318233;22;20132;-85
2023/04/18 03:21:35;;;;;;;1.70;1.60;;;17.90;37.20;;;;;;6292788;22;20191;-85
2023/04/18 03:24:01;;;;;;;1.50;1.40;;;18.00;37.30;;;;;;6266495;22;20152;-85
2023/04/18 03:26:36;;;;;;;1.75;1.50;;;18.00;37.30;;;;;;6317971;22;20147;-85
2023/04/18 03:29:02;;;;;;;1.80;1.70;;;18.00;37.30;;;;;;6267596;22;20147;-85
2023/04/18 03:31:33;;;;;;;2.00;1.50;;;18.00;37.30;;;;;;6293604;22;20158;-85
2023/04/18 03:34:01;;;;;;;1.67;1.40;;;18.00;37.30;;;;;;6241015;22;20148;-85
2023/04/18 03:36:30;;;;;;;1.50;1.40;;;17.90;37.30;;;;;;6291737;22;20179;-85
2023/04/18 03:39:02;;;;;;;1.90;1.58;;;18.00;37.30;;;;;;6292887;22;20181;-85
2023/04/18 03:41:28;;;;;;;1.40;1.30;;;18.00;37.30;;;;;;6242019;22;20144;-85
2023/04/18 03:43:54;;;;;;;1.30;1.10;;;17.90;37.30;;;;;;6292103;22;20182;-84
2023/04/18 03:46:29;;;;;;;2.58;1.30;;;18.00;37.40;;;;;;6318368;22;20128;-85
2023/04/18 03:48:59;;;;;;;1.73;1.60;;;18.00;37.40;;;;;;6240078;22;20158;-85
2023/04/18 03:51:26;;;;;;;1.30;1.20;;;18.00;37.40;;;;;;6266394;22;20813;-85
2023/04/18 03:53:52;;;;;;;1.50;1.40;;;18.00;37.30;;;;;;6292645;22;20147;-85
2023/04/18 03:56:24;;;;;;;1.40;1.30;;;17.90;37.30;;;;;;6318124;22;20178;-85
2023/04/18 03:58:50;;;;;;;1.60;1.48;;;18.00;37.40;;;;;;6215747;22;20154;-85
2023/04/18 04:01:16;;;;;;;1.40;1.30;;;18.00;37.40;;;;;;6292090;22;20151;-85
2023/04/18 04:03:42;;;;;;;1.42;1.30;;;18.00;37.40;;;;;;6292467;22;20140;-84
2023/04/18 04:06:08;;;;;;;1.70;1.40;;;18.00;37.50;;;;;;6318443;22;20131;-84
2023/04/18 04:08:34;;;;;;;1.52;1.42;;;18.00;37.40;;;;;;6292981;22;20147;-84
2023/04/18 04:11:00;;;;;;;1.50;1.40;;;18.00;37.40;;;;;;6292367;22;20170;-85
2023/04/18 04:13:26;;;;;;;1.45;1.35;;;18.00;37.40;;;;;;6318764;22;20586;-85
2023/04/18 04:15:56;;;;;;;1.75;1.42;;;18.00;37.50;;;;;;6318747;22;20163;-84
2023/04/18 04:18:28;;;;;;;1.50;1.40;;;18.10;37.40;;;;;;6240917;22;20151;-84
2023/04/18 04:20:54;;;;;;;1.77;1.67;;;18.10;37.40;;;;;;6345562;22;20124;-85
2023/04/18 04:23:25;;;;;;;1.50;1.40;;;18.10;38.00;;;;;;6266853;22;20591;-84
2023/04/18 04:25:55;;;;;;;1.45;1.35;;;18.00;37.30;;;;;;6239864;22;20193;-84
2023/04/18 04:28:22;;;;;;;1.80;1.50;;;18.10;37.40;;;;;;6214604;22;20186;-84
2023/04/18 04:30:49;;;;;;;1.50;1.40;;;18.00;37.30;;;;;;6291895;22;20148;-84
2023/04/18 04:33:27;;;;;;;1.67;1.50;;;18.10;37.40;;;;;;6292670;22;20151;-84
2023/04/18 04:35:57;;;;;;;1.85;1.50;;;18.10;37.30;;;;;;6242730;22;20214;-84
2023/04/18 04:38:29;;;;;;;1.90;1.50;;;18.10;37.40;;;;;;6239224;22;20147;-84
2023/04/18 04:40:56;;;;;;;1.85;1.40;;;18.10;37.40;;;;;;6264845;22;20147;-84
2023/04/18 04:43:23;;;;;;;1.48;1.38;;;18.10;37.30;;;;;;6291619;22;20163;-84
2023/04/18 04:45:51;;;;;;;1.98;1.55;;;18.10;37.30;;;;;;6290065;22;20192;-84
2023/04/18 04:48:23;;;;;;;1.33;1.23;;;18.10;37.30;;;;;;6290747;22;20151;-84
2023/04/18 04:50:51;;;;;;;1.90;1.52;;;18.20;37.30;;;;;;6239506;22;20152;-85
2023/04/18 04:53:23;;;;;;;1.70;1.45;;;18.20;37.30;;;;;;6289343;22;20154;-84
2023/04/18 04:55:53;;;;;;;1.40;1.30;;;18.20;37.30;;;;;;6263345;22;20202;-84
2023/04/18 04:58:27;;;;;;;1.40;1.30;;;18.10;37.30;;;;;;6238124;22;20578;-84
2023/04/18 05:00:59;;;;;;;1.58;1.48;;;18.20;37.30;;;;;;6263181;22;20513;-84
2023/04/18 05:03:25;;;;;;;1.75;1.40;;;18.20;37.30;;;;;;6237980;22;20182;-84
2023/04/18 05:05:55;;;;;;;1.50;1.40;;;18.20;37.30;;;;;;6343543;22;20139;-85
2023/04/18 05:08:21;;;;;;;1.30;1.20;;;18.20;37.20;;;;;;6263299;22;20158;-85
2023/04/18 05:10:48;;;;;;;1.40;1.30;;;18.20;37.10;;;;;;6315959;22;20459;-85
2023/04/18 05:13:18;;;;;;;1.58;1.48;;;18.30;37.20;;;;;;6315098;22;20582;-84
2023/04/18 05:15:44;;;;;;;1.60;1.50;;;18.30;37.10;;;;;;6237840;22;20182;-85
2023/04/18 05:18:14;;;;;;;1.52;1.42;;;18.30;37.10;;;;;;6315975;22;20196;-84
2023/04/18 05:20:40;;;;;;;1.63;1.52;;;18.30;37.10;;;;;;6237831;22;20626;-84
2023/04/18 05:23:06;;;;;;;1.30;1.20;;;18.30;37.10;;;;;;6264308;22;20162;-84
2023/04/18 05:25:32;;;;;;;1.23;1.13;;;18.40;37.00;;;;;;6289639;22;20151;-84
2023/04/18 05:28:03;;;;;;;1.50;1.40;;;18.40;37.00;;;;;;6290287;22;20161;-84
2023/04/18 05:30:29;;;;;;;1.40;1.30;;;18.30;36.90;;;;;;6263869;22;20177;-85
2023/04/18 05:32:59;;;;;;;1.60;1.50;;;18.40;36.90;;;;;;6289999;22;20383;-85
2023/04/18 05:35:31;;;;;;;1.33;1.23;;;18.40;36.90;;;;;;6213119;22;20190;-84
2023/04/18 05:37:57;;;;;;;1.40;1.30;;;18.40;36.90;;;;;;6237959;22;20151;-85
2023/04/18 05:40:28;;;;;;;1.50;1.40;;;18.30;36.90;;;;;;6289773;22;20598;-84
2023/04/18 05:42:54;;;;;;;1.52;1.40;;;18.40;36.90;;;;;;6239321;22;20583;-84
2023/04/18 05:45:25;;;;;;;1.45;1.25;;;18.40;36.90;;;;;;6316250;22;20154;-84
2023/04/18 05:47:52;;;;;;;1.30;1.20;;;18.50;36.80;;;;;;6238831;22;20646;-84
2023/04/18 05:50:23;;;;;;;1.30;1.20;;;18.40;36.80;;;;;;6316482;22;20432;-84
2023/04/18 05:52:53;;;;;;;1.30;1.20;;;18.50;36.80;;;;;;6238415;22;20151;-84
2023/04/18 05:55:23;;;;;;;1.45;1.33;;;18.50;36.70;;;;;;6238294;22;20261;-85
2023/04/18 05:57:54;;;;;;;1.45;1.35;;;18.50;36.80;;;;;;6238421;22;20158;-85
2023/04/18 06:00:27;;;;;;;1.95;1.25;;;18.50;36.70;;;;;;6262937;22;20475;-85
2023/04/18 06:02:57;;;;;;;1.45;1.35;;;18.50;36.70;;;;;;6238101;22;20154;-84
2023/04/18 06:05:28;;;;;;;2.15;1.58;;;18.40;36.70;;;;;;6262794;22;20591;-84
2023/04/18 06:07:58;;;;;;;1.58;1.40;;;18.50;36.70;;;;;;6263640;22;20147;-84
2023/04/18 06:10:32;;;;;;;1.73;1.52;;;18.60;36.70;;;;;;6213555;22;20194;-85
2023/04/18 06:13:04;;;;;;;1.70;1.50;;;18.60;36.70;;;;;;6238098;22;20151;-84
2023/04/18 06:15:30;;;;;;;1.60;1.50;;;18.60;36.70;;;;;;6238048;22;20182;-85
2023/04/18 06:17:56;;;;;;;1.85;1.73;;;18.60;36.60;;;;;;6315755;22;20131;-84
2023/04/18 06:20:23;;;;;;;1.40;1.23;;;18.60;36.60;;;;;;6289869;22;20148;-85
2023/04/18 06:22:49;;;;;;;2.15;1.60;;;18.50;36.60;;;;;;6314431;22;20182;-84
2023/04/18 06:25:19;;;;;;;1.40;1.30;;;18.60;37.30;;;;;;6289631;22;20200;-84
2023/04/18 06:27:54;;;;;;;2.25;1.27;;;18.60;36.70;;;;;;6238526;22;20219;-83
2023/04/18 06:30:24;;;;;;;1.63;1.38;;;18.60;36.60;;;;;;6240200;22;20150;-84
2023/04/18 06:32:50;;;;;;;1.50;1.40;;;18.60;36.60;;;;;;6238461;22;20155;-84
2023/04/18 06:35:20;;;;;;;1.35;1.25;;;18.70;36.50;;;;;;6292410;22;20190;-84
2023/04/18 06:37:52;;;;;;;1.58;1.40;;;18.70;36.50;;;;;;6240284;22;20238;-84
2023/04/18 06:40:18;;;;;;;1.55;1.30;;;18.70;36.60;;;;;;6263463;22;20147;-84
2023/04/18 06:42:44;;;;;;;2.85;1.55;;;18.70;36.60;;;;;;6317460;22;20222;-85
2023/04/18 06:45:11;;;;;;;1.38;1.27;;;18.70;36.60;;;;;;6277221;22;20171;-84
2023/04/18 06:47:37;;;;;;;2.25;1.40;;;18.60;36.60;;;;;;6314301;22;20142;-84
2023/04/18 06:50:09;;;;;;;1.42;1.33;;;18.70;36.60;;;;;;6315047;22;20139;-85
2023/04/18 06:52:39;;;;;;;1.38;1.27;;;18.70;36.50;;;;;;6211731;22;20158;-85
2023/04/18 06:55:06;;;;;;;1.30;1.20;;;18.70;36.60;;;;;;6314956;22;20216;-85
2023/04/18 06:57:37;;;;;;;1.20;1.10;;;18.70;36.60;;;;;;6288935;22;20150;-85
2023/04/18 07:00:09;;;;;;;1.45;1.20;;;18.70;36.70;;;;;;6262692;22;20226;-85
2023/04/18 07:02:40;;;;;;;1.67;1.20;;;18.70;36.60;;;;;;6237156;22;20151;-84
2023/04/18 07:05:10;;;;;;;1.55;1.45;;;18.70;37.30;;;;;;6262398;22;20244;-85
2023/04/18 07:07:36;;;;;;;1.38;1.27;;;18.70;36.70;;;;;;6236791;22;20246;-84
2023/04/18 07:10:02;;;;;;;1.40;1.00;;;18.70;36.70;;;;;;6287539;22;20174;-84
2023/04/18 07:12:32;;;;;;;1.73;1.30;;;18.70;36.60;;;;;;6287323;22;20142;-84
2023/04/18 07:15:03;;;;;;;1.48;1.38;;;18.70;36.50;;;;;;6210469;22;20196;-84
2023/04/18 07:17:33;;;;;;;1.30;1.20;;;18.70;36.60;;;;;;6212529;22;20152;-84
2023/04/18 07:19:59;;;;;;;1.58;1.10;;;18.60;36.60;;;;;;6239077;22;20147;-85
2023/04/18 07:22:25;;;;;;;1.27;1.17;;;18.70;36.70;;;;;;6316287;22;20187;-84
2023/04/18 07:24:51;;;;;;;1.35;1.17;;;18.70;36.80;;;;;;6315682;22;20231;-85
2023/04/18 07:27:17;;;;;;;1.20;1.10;;;18.60;36.90;;;;;;6289882;22;20575;-84
2023/04/18 07:29:43;;;;;;;1.25;1.15;;;18.60;36.90;;;;;;6289285;22;20151;-85
2023/04/18 07:32:13;;;;;;;1.55;1.40;;;18.60;36.80;;;;;;6288822;22;20158;-85
2023/04/18 07:34:43;;;;;;;1.65;1.15;;;18.70;36.70;;;;;;6212195;22;20155;-84
2023/04/18 07:37:16;;;;;;;1.00;1.00;;;18.70;36.70;;;;;;6263761;22;20191;-84
2023/04/18 07:39:42;;;;;;;1.38;1.00;;;18.70;36.60;;;;;;6216573;22;20158;-84
2023/04/18 07:42:12;;;;;;;1.13;1.02;;;18.70;36.60;;;;;;6316275;22;20135;-85
2023/04/18 07:44:38;;;;;;;1.17;1.08;;;18.80;36.60;;;;;;6212331;22;20630;-84
2023/04/18 07:47:08;;;;;;;1.10;1.00;;;18.80;36.60;;;;;;6289519;22;20147;-84
2023/04/18 07:49:34;;;;;;;3.72;1.20;;;18.80;36.60;;;;;;6317642;22;20433;-85
2023/04/18 07:52:00;;;;;;;1.27;1.13;;;18.80;36.50;;;;;;6313263;22;20174;-84
2023/04/18 07:54:26;;;;;;;1.27;1.17;;;18.70;36.60;;;;;;6287579;22;20631;-85
2023/04/18 07:56:57;;;;;;;1.75;1.00;;;18.80;36.60;;;;;;6340952;22;20255;-85
2023/04/18 07:59:23;;;;;;;1.10;1.00;;;18.80;36.60;;;;;;6261259;22;20151;-84
2023/04/18 08:01:49;;;;;;;1.17;1.10;;;18.80;36.50;;;;;;6288959;22;20226;-85
2023/04/18 08:04:15;;;;;;;1.13;1.02;;;18.90;36.40;;;;;;6288865;22;20169;-84
2023/04/18 08:06:41;;;;;;;1.02;0.93;;;18.80;36.50;;;;;;6314052;22;20131;-84
2023/04/18 08:09:07;;;;;;;1.85;0.90;;;18.80;36.60;;;;;;6316121;22;20496;-84
2023/04/18 08:11:37;;;;;;;1.40;1.20;;;18.80;36.60;;;;;;6289780;22;20208;-84
2023/04/18 08:14:03;;;;;;;1.10;1.00;;;18.70;36.60;;;;;;6236566;22;20208;-84
2023/04/18 08:16:29;;;;;;;1.10;1.00;;;18.70;36.60;;;;;;6288208;22;20178;-84
2023/04/18 08:19:00;;;;;;;1.30;1.20;;;18.80;36.70;;;;;;6313667;22;20128;-84
2023/04/18 08:21:25;;;;;;;1.40;1.30;;;18.70;36.70;;;;;;6255705;22;20853;-86
2023/04/18 08:23:51;;;;;;;1.08;0.93;;;18.70;36.80;;;;;;6256619;22;20145;-84
2023/04/18 08:26:21;;;;;;;1.10;1.00;;;18.70;36.90;;;;;;6307388;22;20136;-84
2023/04/18 08:28:47;;;;;;;1.00;0.90;;;18.60;36.90;;;;;;6204625;22;20152;-84
2023/04/18 08:31:14;;;;;;;1.10;1.00;;;18.70;37.80;;;;;;6283103;22;20129;-84
2023/04/18 08:33:40;;;;;;;0.77;0.77;;;18.70;37.00;;;;;;6308535;22;20137;-84
2023/04/18 08:36:06;;;;;;;1.45;0.98;;;18.70;36.90;;;;;;6257754;22;20595;-84
2023/04/18 08:38:32;;;;;;;0.80;0.80;;;18.70;37.20;;;;;;6282711;22;20167;-84
2023/04/18 08:40:58;;;;;;;0.85;0.85;;;18.70;37.10;;;;;;6257606;22;20575;-84
2023/04/18 08:43:24;;;;;;;1.00;1.00;;;18.60;37.00;;;;;;6282193;22;20139;-84
2023/04/18 08:45:51;;;;;;;1.10;1.00;;;18.70;37.10;;;;;;6257084;22;20150;-84
2023/04/18 08:48:17;;;;;;;1.40;1.10;;;18.70;37.00;;;;;;6282183;22;20254;-84
2023/04/18 08:50:43;;;;;;;1.75;1.00;;;18.70;36.90;;;;;;6282712;22;20575;-84
2023/04/18 08:53:09;;;;;;;1.08;0.98;;;18.80;37.10;;;;;;6309830;22;20156;-84
2023/04/18 08:55:36;;;;;;;1.00;1.00;;;18.80;36.80;;;;;;6257614;22;20491;-84
2023/04/18 08:58:04;;;;;;;0.80;0.80;;;18.80;36.90;;;;;;6310715;22;20131;-84
2023/04/18 09:00:34;;;;;;;1.90;1.13;;;18.80;36.90;;;;;;6260379;22;20145;-85
2023/04/18 09:03:02;;;;;;;1.02;0.90;;;18.70;36.90;;;;;;6209266;22;20174;-84
2023/04/18 09:05:32;;;;;;;0.90;0.90;;;18.80;36.90;;;;;;6286372;22;20166;-85
2023/04/18 09:07:58;;;;;;;0.90;0.90;;;18.80;36.90;;;;;;6208186;22;20156;-85
2023/04/18 09:10:31;;;;;;;0.90;0.90;;;18.90;36.70;;;;;;6233387;22;20310;-85
2023/04/18 09:13:03;;;;;;;1.10;1.00;;;18.90;36.80;;;;;;6208328;22;20163;-84
2023/04/18 09:15:29;;;;;;;1.15;0.90;;;18.80;36.80;;;;;;6209203;22;20233;-85
2023/04/18 09:18:01;;;;;;;1.10;0.98;;;18.90;36.70;;;;;;6282605;22;20136;-85
2023/04/18 09:20:33;;;;;;;0.80;0.80;;;18.90;36.60;;;;;;6233457;22;20540;-83
2023/04/18 09:23:09;;;;;;;0.80;0.80;;;19.00;36.40;;;;;;6289454;22;20194;-85
2023/04/18 09:25:45;;;;;;;1.15;0.90;;;19.00;36.50;;;;;;6239833;22;20486;-84
2023/04/18 09:28:30;;;;;;;0.85;0.85;;;19.00;36.60;;;;;;6290319;22;20234;-85
2023/04/18 09:31:07;;;;;;;0.70;0.70;;;18.90;36.70;;;;;;6345801;22;20139;-85
2023/04/18 09:33:43;;;;;;;1.08;1.00;;;19.00;36.70;;;;;;6318155;22;20135;-84
2023/04/18 09:36:22;;;;;;;0.90;0.90;;;19.00;36.70;;;;;;6240259;22;20183;-84
2023/04/18 09:38:50;;;;;;;0.90;0.90;;;19.00;36.70;;;;;;6262324;22;20173;-85
2023/04/18 09:41:21;;;;;;;0.80;0.80;;;19.00;36.50;;;;;;6288540;22;20593;-84
2023/04/18 09:44:06;;;;;;;0.80;0.80;;;19.10;36.50;;;;;;6238516;22;20152;-84
2023/04/18 09:46:32;;;;;;;0.77;0.77;;;19.10;36.30;;;;;;6222161;22;20162;-84
2023/04/18 09:48:58;;;;;;;0.80;0.80;;;19.10;36.20;;;;;;6288609;22;20198;-85
2023/04/18 09:51:25;;;;;;;0.88;0.88;;;19.10;36.10;;;;;;6289838;22;20140;-84
2023/04/18 09:53:51;;;;;;;1.25;0.90;;;19.10;36.10;;;;;;6288928;22;20652;-84
2023/04/18 09:56:24;;;;;;;0.93;0.90;;;19.10;36.30;;;;;;6314365;22;20183;-85
2023/04/18 09:58:54;;;;;;;0.82;0.82;;;19.10;36.20;;;;;;6314892;22;20207;-84
2023/04/18 10:01:21;;;;;;;0.80;0.80;;;19.10;36.30;;;;;;6289167;22;20150;-85
2023/04/18 10:03:53;;;;;;;0.60;0.60;;;19.10;36.30;;;;;;6290527;22;20181;-84
2023/04/18 10:06:19;;;;;;;0.80;0.80;;;19.00;36.20;;;;;;6263965;22;20521;-84
2023/04/18 10:08:46;;;;;;;0.75;0.75;;;19.10;36.10;;;;;;6314741;22;20159;-84
2023/04/18 10:11:16;;;;;;;1.55;0.80;;;19.10;36.20;;;;;;6288337;22;20163;-84
2023/04/18 10:13:45;;;;;;;0.70;0.65;;;19.10;36.10;;;;;;6232416;22;20613;-84
2023/04/18 10:16:15;;;;;;;0.98;0.80;;;19.10;36.20;;;;;;6289468;22;20618;-84
2023/04/18 10:18:45;;;;;;;0.70;0.60;;;19.10;36.20;;;;;;6231932;22;20235;-85
2023/04/18 10:21:11;;;;;;;0.80;0.80;;;19.00;36.10;;;;;;6236929;22;20183;-85
2023/04/18 10:23:41;;;;;;;0.85;0.85;;;19.10;36.20;;;;;;6287995;22;20148;-85
2023/04/18 10:26:08;;;;;;;0.90;0.73;;;19.10;36.10;;;;;;6237137;22;20165;-84
2023/04/18 10:28:55;;;;;;;0.63;0.60;;;19.20;36.00;;;;;;6289036;22;20196;-85
2023/04/18 10:31:23;;;;;;;1.05;0.88;;;19.20;36.00;;;;;;6288456;22;20155;-85
2023/04/18 10:33:56;;;;;;;0.73;0.73;;;19.20;36.00;;;;;;6289187;22;20197;-85
2023/04/18 10:36:28;;;;;;;0.80;0.80;;;19.20;36.10;;;;;;6236888;22;20237;-84
2023/04/18 10:39:19;;;;;;;0.52;0.52;;;19.10;36.00;;;;;;6237329;22;20148;-84
2023/04/18 10:41:51;;;;;;;1.90;0.88;;;19.10;36.00;;;;;;6248914;22;20148;-85
2023/04/18 10:44:18;;;;;;;0.88;0.70;;;19.10;36.00;;;;;;6262544;22;20155;-85
2023/04/18 10:47:24;;;;;;;1.00;0.85;;;19.00;36.00;;;;;;6315167;22;20207;-84
2023/04/18 10:49:56;;;;;;;1.15;0.75;;;19.00;36.30;;;;;;6302536;22;20143;-85
2023/04/18 10:52:22;;;;;;;1.83;0.80;;;19.00;36.40;;;;;;6264231;22;20640;-85
2023/04/18 10:54:56;;;;;;;0.77;0.77;;;19.00;36.20;;;;;;6317003;22;20230;-85
2023/04/18 10:57:36;;;;;;;0.70;0.70;;;19.00;36.10;;;;;;6317158;22;20167;-85
2023/04/18 11:00:03;;;;;;;0.75;0.70;;;19.00;36.30;;;;;;6269943;22;20650;-85
2023/04/18 11:02:34;;;;;;;0.77;0.70;;;19.10;36.30;;;;;;6317785;22;20151;-85
2023/04/18 11:05:05;;;;;;;0.82;0.73;;;19.00;36.20;;;;;;6265764;22;20205;-85
2023/04/18 11:07:47;;;;;;;0.85;0.80;;;18.90;36.20;;;;;;6240112;22;20151;-86
2023/04/18 11:10:17;;;;;;;0.70;0.70;;;18.90;36.30;;;;;;6241946;22;20159;-85
2023/04/18 11:12:43;;;;;;;1.00;0.90;;;18.90;36.10;;;;;;6320594;22;20192;-85
2023/04/18 11:15:11;;;;;;;0.70;0.70;;;19.00;36.10;;;;;;6291116;22;20147;-85
2023/04/18 11:17:42;;;;;;;0.65;0.65;;;18.90;36.10;;;;;;6291800;22;20213;-84
2023/04/18 11:20:11;;;;;;;0.80;0.70;;;19.00;36.10;;;;;;6214270;22;20151;-85
2023/04/18 11:22:46;;;;;;;0.60;0.60;;;18.90;35.80;;;;;;6316274;22;20182;-85
2023/04/18 11:25:12;;;;;;;1.08;0.70;;;19.00;36.00;;;;;;6314119;22;20127;-85
2023/04/18 11:27:45;;;;;;;0.80;0.80;;;19.00;35.90;;;;;;6288279;22;20147;-85
2023/04/18 11:30:12;;;;;;;0.60;0.60;;;18.90;36.00;;;;;;6212147;22;20202;-85
2023/04/18 11:32:38;;;;;;;0.80;0.80;;;18.90;36.00;;;;;;6289007;22;20238;-85
2023/04/18 11:35:04;;;;;;;0.73;0.73;;;19.00;36.00;;;;;;6313959;22;20139;-85
2023/04/18 11:37:31;;;;;;;0.90;0.90;;;18.90;36.00;;;;;;6288762;22;20163;-85
2023/04/18 11:40:01;;;;;;;0.90;0.80;;;18.90;36.00;;;;;;6313771;22;20203;-85
2023/04/18 11:42:27;;;;;;;0.60;0.60;;;18.90;35.90;;;;;;6262337;22;20239;-86
2023/04/18 11:44:53;;;;;;;0.80;0.60;;;18.90;36.00;;;;;;6289380;22;20167;-85
2023/04/18 11:47:28;;;;;;;0.50;0.50;;;19.00;35.90;;;;;;6289090;22;20485;-85
2023/04/18 11:50:03;;;;;;;0.60;0.60;;;18.90;35.90;;;;;;6289556;22;20523;-85
2023/04/18 11:52:30;;;;;;;1.52;0.80;;;18.90;36.00;;;;;;6239152;22;20151;-85
2023/04/18 11:55:16;;;;;;;0.55;0.55;;;18.90;36.00;;;;;;6290223;22;20226;-85
2023/04/18 11:57:58;;;;;;;0.52;0.52;;;18.90;35.90;;;;;;6290215;22;20146;-85
2023/04/18 12:00:34;;;;;;;1.00;0.73;;;18.90;36.00;;;;;;6317822;22;20207;-84
2023/04/18 12:03:03;;;;;;;1.08;0.80;;;18.90;36.00;;;;;;6313641;22;20135;-85
2023/04/18 12:05:30;;;;;;;0.70;0.70;;;18.90;36.00;;;;;;6290243;22;20150;-85
2023/04/18 12:08:12;;;;;;;0.57;0.57;;;18.90;35.90;;;;;;6287602;22;20134;-86
2023/04/18 12:10:45;;;;;;;0.57;0.57;;;18.90;36.00;;;;;;6340105;22;20197;-85
2023/04/18 12:13:11;;;;;;;0.60;0.60;;;18.90;36.00;;;;;;6286832;22;20598;-85
2023/04/18 12:15:38;;;;;;;0.60;0.60;;;18.90;35.90;;;;;;6286194;22;20182;-85
2023/04/18 12:18:07;;;;;;;0.68;0.68;;;18.90;35.90;;;;;;6313655;22;20134;-84
2023/04/18 12:20:57;;;;;;;1.38;0.60;;;18.80;35.80;;;;;;6340480;22;20128;-85
2023/04/18 12:23:41;;;;;;;0.70;0.70;;;18.90;35.80;;;;;;6340466;22;20138;-85
2023/04/18 12:26:11;;;;;;;0.95;0.65;;;18.80;35.90;;;;;;6312574;22;20138;-85
2023/04/18 12:28:37;;;;;;;0.60;0.60;;;18.80;36.00;;;;;;6314190;22;20192;-85
2023/04/18 12:31:06;;;;;;;0.60;0.60;;;18.80;35.90;;;;;;6315190;22;20601;-85
2023/04/18 12:33:35;;;;;;;0.60;0.60;;;18.80;35.70;;;;;;6342021;22;20128;-84
2023/04/18 12:36:01;;;;;;;0.63;0.60;;;18.90;35.70;;;;;;6342433;22;20229;-84
2023/04/18 12:38:57;;;;;;;0.50;0.50;;;18.90;35.90;;;;;;6253454;22;20153;-85
2023/04/18 12:41:23;;;;;;;0.70;0.70;;;18.80;35.70;;;;;;6222350;22;20148;-85
2023/04/18 12:43:52;;;;;;;0.80;0.70;;;18.90;35.80;;;;;;6227214;22;20149;-85
2023/04/18 12:46:18;;;;;;;1.63;0.60;;;18.80;35.80;;;;;;6200110;22;20635;-85
2023/04/18 12:48:45;;;;;;;0.50;0.50;;;18.90;35.60;;;;;;6250592;22;20495;-85
2023/04/18 12:51:11;;;;;;;1.85;0.60;;;18.90;35.60;;;;;;6224510;22;20152;-85
2023/04/18 12:53:42;;;;;;;0.80;0.68;;;18.90;35.60;;;;;;6251702;22;20199;-86
2023/04/18 12:56:08;;;;;;;0.77;0.75;;;18.90;35.40;;;;;;6226702;22;20187;-84
2023/04/18 12:58:42;;;;;;;0.73;0.50;;;18.90;35.40;;;;;;6252024;22;20563;-85